KSIK/SIK METAR and TAF weather

Enter ICAO airport designator
Station Type Date Time Source
KSIK METAR 2022/09/26 10:15 UTC NOAA

KSIK 261015Z AUTO 00000KT 10SM CLR 12/08 A2999 RMK AO2


Station Type Date Time Source
KSIK Decoded METAR 2022/09/26 10:15 UTC NOAA

Station name not available
Sep 26, 2022 - 06:15 AM EDT / 2022.09.26 1015 UTC
Wind: Calm:0
Visibility: 10 mile(s):0
Sky conditions: clear
Temperature: 53 F (12 C)
Dew Point: 46 F (8 C)
Relative Humidity: 76%
Pressure (altimeter): 29.99 in. Hg (1015 hPa)
ob: KSIK 261015Z AUTO 00000KT 10SM CLR 12/08 A2999 RMK AO2
cycle: 10

Station Type Date Time Source
KSIK TAF UTC NOAA

Error!

Example: see airport list